createdAt,value
2022-08-26T00:00:02.791Z,72.7
2022-08-26T00:03:02.774Z,72.7
2022-08-26T00:06:02.768Z,72.7
2022-08-26T00:09:02.829Z,72.7
2022-08-26T00:12:02.794Z,72.7
2022-08-26T00:15:02.827Z,72.7
2022-08-26T00:18:02.774Z,72.7
2022-08-26T00:21:08.428Z,72.7
2022-08-26T00:24:02.769Z,72.7
2022-08-26T00:27:02.758Z,72.7
2022-08-26T00:30:03.232Z,72.7
2022-08-26T00:33:03.930Z,72.7
2022-08-26T00:36:02.762Z,72.7
2022-08-26T00:39:04.023Z,73.6
2022-08-26T00:42:04.388Z,73.6
2022-08-26T00:45:02.833Z,73.6
2022-08-26T00:48:02.814Z,73.8
2022-08-26T00:51:03.081Z,73.8
2022-08-26T00:54:02.750Z,73.8
2022-08-26T00:57:02.915Z,73.8
2022-08-26T01:00:02.743Z,73.8
2022-08-26T01:03:02.896Z,73.8
2022-08-26T01:06:02.779Z,73.8
2022-08-26T01:09:02.764Z,73.8
2022-08-26T01:12:03.820Z,73.8
2022-08-26T01:15:02.795Z,73.8
2022-08-26T01:18:03.771Z,73.8
2022-08-26T01:21:02.752Z,73.8
2022-08-26T01:24:02.822Z,74.5
2022-08-26T01:27:02.804Z,74.5
2022-08-26T01:30:04.025Z,74.5
2022-08-26T01:33:02.855Z,74.5
2022-08-26T01:36:02.783Z,74.5
2022-08-26T01:39:02.838Z,74.5
2022-08-26T01:42:05.640Z,75
2022-08-26T01:45:04.063Z,75
2022-08-26T01:48:03.326Z,75
2022-08-26T01:51:02.777Z,75
2022-08-26T01:54:02.803Z,75
2022-08-26T01:57:04.092Z,75
2022-08-26T02:00:02.799Z,75
2022-08-26T02:03:02.952Z,75
2022-08-26T02:06:02.805Z,75
2022-08-26T02:09:02.991Z,75
2022-08-26T02:12:03.736Z,75
2022-08-26T02:15:02.900Z,75.4
2022-08-26T02:18:03.046Z,75.4
2022-08-26T02:21:03.219Z,75.4
2022-08-26T02:24:02.796Z,75.4
2022-08-26T02:27:02.763Z,75.4
2022-08-26T02:30:03.490Z,75.4
2022-08-26T02:33:02.812Z,75.4
2022-08-26T02:36:02.808Z,75.4
2022-08-26T02:39:02.939Z,76.1
2022-08-26T02:42:02.769Z,76.1
2022-08-26T02:45:02.730Z,76.1
2022-08-26T02:48:02.770Z,76.1
2022-08-26T02:51:02.740Z,76.1
2022-08-26T02:54:03.605Z,76.1
2022-08-26T02:57:02.804Z,76.1
2022-08-26T03:00:03.257Z,76.8
2022-08-26T03:03:02.904Z,76.8
2022-08-26T03:06:03.042Z,76.8
2022-08-26T03:09:02.774Z,76.8
2022-08-26T03:12:02.764Z,76.8
2022-08-26T03:15:02.772Z,76.8
2022-08-26T03:18:03.052Z,76.8
2022-08-26T03:21:02.731Z,76.8
2022-08-26T03:24:02.832Z,76.8
2022-08-26T03:27:08.132Z,76.8
2022-08-26T03:30:03.428Z,76.8
2022-08-26T03:33:02.802Z,77.4
2022-08-26T03:36:02.711Z,77.4
2022-08-26T03:39:02.759Z,77.4
2022-08-26T03:42:02.766Z,77.4
2022-08-26T03:45:02.766Z,77.4
2022-08-26T03:48:03.902Z,77.4
2022-08-26T03:51:05.233Z,77.4
2022-08-26T03:54:02.810Z,77.4
2022-08-26T03:57:02.756Z,77.4
2022-08-26T04:00:02.823Z,77.4
2022-08-26T04:03:02.941Z,77.4
2022-08-26T04:06:02.732Z,77.4
2022-08-26T04:09:02.984Z,77.4
2022-08-26T04:12:02.810Z,77.4
2022-08-26T04:15:04.977Z,77.4
2022-08-26T04:18:02.766Z,77.4
2022-08-26T04:21:04.071Z,77.4
2022-08-26T04:24:06.944Z,77.4
2022-08-26T04:27:02.844Z,78
2022-08-26T04:30:02.861Z,78
2022-08-26T04:33:03.434Z,78
2022-08-26T04:36:02.798Z,78
2022-08-26T04:39:02.740Z,78
2022-08-26T04:42:03.946Z,78
2022-08-26T04:45:05.723Z,78
2022-08-26T04:48:02.776Z,78
2022-08-26T04:51:02.771Z,78
2022-08-26T04:54:02.790Z,78
2022-08-26T04:57:02.767Z,78
2022-08-26T05:00:03.713Z,78
2022-08-26T05:03:03.457Z,78
2022-08-26T05:06:02.774Z,78
2022-08-26T05:09:04.549Z,78
2022-08-26T05:12:02.827Z,78
2022-08-26T05:15:03.690Z,78
2022-08-26T05:18:03.249Z,78
2022-08-26T05:21:02.807Z,78
2022-08-26T05:24:02.844Z,80.6
2022-08-26T05:27:02.813Z,80.6
2022-08-26T05:30:03.299Z,80.6
2022-08-26T05:33:02.808Z,80.6
2022-08-26T05:36:02.800Z,80.6
2022-08-26T05:39:04.115Z,80.6
2022-08-26T05:42:04.426Z,80.6
2022-08-26T05:45:02.902Z,80.6
2022-08-26T05:48:02.832Z,80.6
2022-08-26T05:51:02.848Z,80.6
2022-08-26T05:54:03.584Z,80.6
2022-08-26T05:57:02.834Z,80.6
2022-08-26T06:00:03.233Z,80.6
2022-08-26T06:03:03.549Z,80.6
2022-08-26T06:06:02.835Z,80.6
2022-08-26T06:09:02.966Z,80.6
2022-08-26T06:12:03.364Z,80.1
2022-08-26T06:15:06.147Z,80.1
2022-08-26T06:18:02.808Z,80.1
2022-08-26T06:21:02.945Z,80.1
2022-08-26T06:24:02.898Z,79
2022-08-26T06:27:02.775Z,79
2022-08-26T06:30:02.913Z,79.4
2022-08-26T06:33:02.799Z,79.4
2022-08-26T06:36:02.795Z,79.4
2022-08-26T06:39:02.801Z,79.4
2022-08-26T06:42:06.203Z,79.4
2022-08-26T06:45:02.851Z,79.4
2022-08-26T06:48:03.482Z,78.8
2022-08-26T06:51:02.776Z,78.8
2022-08-26T06:54:02.778Z,78.8
2022-08-26T06:57:03.230Z,78.8
2022-08-26T07:00:02.913Z,78.8
2022-08-26T07:03:03.063Z,77.9
2022-08-26T07:06:02.839Z,77.9
2022-08-26T07:09:03.351Z,77.9
2022-08-26T07:12:02.810Z,77.3
2022-08-26T07:15:02.812Z,77.3
2022-08-26T07:18:03.063Z,77.2
2022-08-26T07:21:02.821Z,77.2
2022-08-26T07:24:03.822Z,76.4
2022-08-26T07:27:02.973Z,76.4
2022-08-26T07:30:04.271Z,76.4
2022-08-26T07:33:03.550Z,75.5
2022-08-26T07:36:06.586Z,75.5
2022-08-26T07:39:04.159Z,75.5
2022-08-26T07:42:09.537Z,75.5
2022-08-26T07:45:02.950Z,75
2022-08-26T07:48:06.239Z,75
2022-08-26T07:51:02.887Z,75
2022-08-26T07:57:08.339Z,75
2022-08-26T08:00:02.853Z,75
2022-08-26T08:03:02.924Z,75
2022-08-26T08:06:02.809Z,75
2022-08-26T08:09:02.872Z,75
2022-08-26T08:12:02.886Z,75
2022-08-26T08:15:02.800Z,72.9
2022-08-26T08:18:03.289Z,72.9
2022-08-26T08:21:25.947Z,72.9
2022-08-26T08:24:02.812Z,70.9
2022-08-26T08:27:02.798Z,70.9
2022-08-26T08:30:02.855Z,70.9
2022-08-26T08:33:02.800Z,70.9
2022-08-26T08:36:02.871Z,70.9
2022-08-26T08:39:02.799Z,70.9
2022-08-26T08:42:04.673Z,70.9
2022-08-26T08:45:02.819Z,70.9
2022-08-26T08:48:04.047Z,69.8
2022-08-26T08:51:02.828Z,69.8
2022-08-26T08:54:02.857Z,69.8
2022-08-26T08:57:02.894Z,69.8
2022-08-26T09:00:02.877Z,70.3
2022-08-26T09:03:02.798Z,70.3
2022-08-26T09:06:04.388Z,70.3
2022-08-26T09:09:02.881Z,69.3
2022-08-26T09:12:02.837Z,69.3
2022-08-26T09:15:02.936Z,69.3
2022-08-26T09:18:06.622Z,69.3
2022-08-26T09:21:02.778Z,69.3
2022-08-26T09:24:02.840Z,69.3
2022-08-26T09:27:02.866Z,69.3
2022-08-26T09:30:02.872Z,69.3
2022-08-26T09:33:03.228Z,69.3
2022-08-26T09:36:02.900Z,69.3
2022-08-26T09:39:02.769Z,69.3
2022-08-26T09:42:02.872Z,69.3
2022-08-26T09:45:02.765Z,69.3
2022-08-26T09:48:03.788Z,69.5
2022-08-26T09:51:03.494Z,69.5
2022-08-26T09:54:02.832Z,69.5
2022-08-26T09:57:03.049Z,69.5
2022-08-26T10:00:02.884Z,69.5
2022-08-26T10:03:02.860Z,69.5
2022-08-26T10:06:02.874Z,69.1
2022-08-26T10:09:11.107Z,69.1
2022-08-26T10:12:02.822Z,69.1
2022-08-26T10:15:02.862Z,69.1
2022-08-26T10:18:02.886Z,68.5
2022-08-26T10:21:03.607Z,68.5
2022-08-26T10:24:03.849Z,68.5
2022-08-26T10:27:02.821Z,68.5
2022-08-26T10:30:02.894Z,68.5
2022-08-26T10:33:02.860Z,68.5
2022-08-26T10:36:02.779Z,68.5
2022-08-26T10:39:03.194Z,68.5
2022-08-26T10:42:03.936Z,68.5
2022-08-26T10:45:02.834Z,68.5
2022-08-26T10:48:03.035Z,66.5
2022-08-26T10:51:04.482Z,66.5
2022-08-26T10:54:05.443Z,66.5
2022-08-26T10:57:02.815Z,66.5
2022-08-26T11:00:06.361Z,65.3
2022-08-26T11:03:02.925Z,65.3
2022-08-26T11:06:03.075Z,65.3
2022-08-26T11:12:12.229Z,65.3
2022-08-26T11:15:05.184Z,65.3
2022-08-26T11:18:03.479Z,65.3
2022-08-26T11:21:03.152Z,65.3
2022-08-26T11:24:04.608Z,66.1
2022-08-26T11:27:03.866Z,66.1
2022-08-26T11:30:03.120Z,66.1
2022-08-26T11:33:02.813Z,66.1
2022-08-26T11:36:14.332Z,65.1
2022-08-26T11:39:02.861Z,65.1
2022-08-26T11:42:02.838Z,65.1
2022-08-26T11:45:07.831Z,65.1
2022-08-26T11:48:03.001Z,63.7
2022-08-26T11:51:04.522Z,63.7
2022-08-26T11:54:03.385Z,63.7
2022-08-26T11:57:11.608Z,63.7
2022-08-26T12:00:02.870Z,63.4
2022-08-26T12:03:03.743Z,63.4
2022-08-26T12:06:04.836Z,63.3
2022-08-26T12:09:02.869Z,63.3
2022-08-26T12:12:03.126Z,63.3
2022-08-26T12:15:05.563Z,63.3
2022-08-26T12:18:02.772Z,63.3
2022-08-26T12:21:02.856Z,63.3
2022-08-26T12:24:02.797Z,63.3
2022-08-26T12:27:02.839Z,63.3
2022-08-26T12:30:03.781Z,60.5
2022-08-26T12:33:02.847Z,60.5
2022-08-26T12:36:02.767Z,60.5
2022-08-26T12:39:02.810Z,60.5
2022-08-26T12:42:02.791Z,60.5
2022-08-26T12:45:02.832Z,60.5
2022-08-26T12:48:02.837Z,60.5
2022-08-26T12:51:03.028Z,60.5
2022-08-26T12:54:02.808Z,60.5
2022-08-26T12:57:02.790Z,56.5
2022-08-26T13:00:02.953Z,56.5
2022-08-26T13:03:02.861Z,54.5
2022-08-26T13:06:02.842Z,54.5
2022-08-26T13:09:02.805Z,54.5
2022-08-26T13:12:04.578Z,54.5
2022-08-26T13:15:02.820Z,54.5
2022-08-26T13:18:02.793Z,54.5
2022-08-26T13:21:02.788Z,54.5
2022-08-26T13:24:02.831Z,54.5
2022-08-26T13:27:02.777Z,54.5
2022-08-26T13:30:03.338Z,54.5
2022-08-26T13:33:04.327Z,54.5
2022-08-26T13:36:02.818Z,54.5
2022-08-26T13:39:02.785Z,54.5
2022-08-26T13:42:02.813Z,54.5
2022-08-26T13:45:02.808Z,54.5
2022-08-26T13:48:02.898Z,54.5
2022-08-26T13:51:02.860Z,54.5
2022-08-26T13:54:02.914Z,56.7
2022-08-26T13:57:02.855Z,55.8
2022-08-26T14:00:02.779Z,55.8
2022-08-26T14:03:02.984Z,55.8
2022-08-26T14:06:02.822Z,55.8
2022-08-26T14:09:02.840Z,55.2
2022-08-26T14:12:05.092Z,55.2
2022-08-26T14:15:02.832Z,55.2
2022-08-26T14:18:03.026Z,55.2
2022-08-26T14:21:02.823Z,55.2
2022-08-26T14:24:03.439Z,55.2
2022-08-26T14:27:02.777Z,55.2
2022-08-26T14:30:02.828Z,55.2
2022-08-26T14:33:02.854Z,55.2
2022-08-26T14:36:02.768Z,55.2
2022-08-26T14:39:02.831Z,55.2
2022-08-26T14:42:02.779Z,55.2
2022-08-26T14:45:02.792Z,54.8
2022-08-26T14:48:02.850Z,54.8
2022-08-26T14:51:02.753Z,54.8
2022-08-26T14:54:02.798Z,55.5
2022-08-26T14:57:02.795Z,55.5
2022-08-26T15:00:02.909Z,55.5
2022-08-26T15:03:03.387Z,55.5
2022-08-26T15:06:02.788Z,55.5
2022-08-26T15:09:02.823Z,55.5
2022-08-26T15:12:02.845Z,55.5
2022-08-26T15:15:02.827Z,55.5
2022-08-26T15:18:02.921Z,55.5
2022-08-26T15:21:02.792Z,55.5
2022-08-26T15:24:02.826Z,55.5
2022-08-26T15:27:02.777Z,54
2022-08-26T15:30:02.839Z,54
2022-08-26T15:33:02.831Z,54
2022-08-26T15:36:02.774Z,54
2022-08-26T15:39:02.824Z,54
2022-08-26T15:42:02.820Z,56.6
2022-08-26T15:45:02.880Z,57
2022-08-26T15:48:13.838Z,57
2022-08-26T15:51:02.810Z,57
2022-08-26T15:54:02.820Z,57
2022-08-26T15:57:04.666Z,58.4
2022-08-26T16:00:02.870Z,58.4
2022-08-26T16:03:02.844Z,58.4
2022-08-26T16:06:02.983Z,58.4
2022-08-26T16:09:02.773Z,58.4
2022-08-26T16:12:02.878Z,59.7
2022-08-26T16:15:02.800Z,59.7
2022-08-26T16:18:02.855Z,58.9
2022-08-26T16:21:16.369Z,58.8
2022-08-26T16:24:02.829Z,58.8
2022-08-26T16:27:02.754Z,58.8
2022-08-26T16:30:02.983Z,59.4
2022-08-26T16:33:02.814Z,59.4
2022-08-26T16:36:02.884Z,59.4
2022-08-26T16:39:02.831Z,59.8
2022-08-26T16:42:02.819Z,59.8
2022-08-26T16:45:02.831Z,59.8
2022-08-26T16:48:02.812Z,59.8
2022-08-26T16:51:02.971Z,60.8
2022-08-26T16:54:02.799Z,60.8
2022-08-26T16:57:02.817Z,61.5
2022-08-26T17:00:02.827Z,62.4
2022-08-26T17:03:03.045Z,62.4
2022-08-26T17:06:02.808Z,62.4
2022-08-26T17:09:02.832Z,62.4
2022-08-26T17:12:02.773Z,61.3
2022-08-26T17:15:02.825Z,61.3
2022-08-26T17:18:03.901Z,61.3
2022-08-26T17:21:02.800Z,61.3
2022-08-26T17:24:02.821Z,61.3
2022-08-26T17:27:02.802Z,61.3
2022-08-26T17:30:02.872Z,61.3
2022-08-26T17:33:02.787Z,61.3
2022-08-26T17:36:02.920Z,63.2
2022-08-26T17:39:02.839Z,63.2
2022-08-26T17:42:02.734Z,63.9
2022-08-26T17:45:02.838Z,63.9
2022-08-26T17:48:02.904Z,63.9
2022-08-26T17:51:02.805Z,63.9
2022-08-26T17:54:02.811Z,63.9
2022-08-26T17:57:02.881Z,63.9
2022-08-26T18:00:02.940Z,64.6
2022-08-26T18:03:02.852Z,64.6
2022-08-26T18:06:02.774Z,64.6
2022-08-26T18:09:02.811Z,64.6
2022-08-26T18:12:02.791Z,64.6
2022-08-26T18:15:02.794Z,64.6
2022-08-26T18:18:02.895Z,64.6
2022-08-26T18:21:04.230Z,64.6
2022-08-26T18:24:02.745Z,64.6
2022-08-26T18:27:02.795Z,64.6
2022-08-26T18:30:02.829Z,69.6
2022-08-26T18:33:02.877Z,69.6
2022-08-26T18:36:02.807Z,71.5
2022-08-26T18:39:02.755Z,71.5
2022-08-26T18:42:02.859Z,72.6
2022-08-26T18:45:02.769Z,72.6
2022-08-26T18:48:02.894Z,73.5
2022-08-26T18:51:02.749Z,73.5
2022-08-26T18:54:02.799Z,73.5
2022-08-26T18:57:03.015Z,73.5
2022-08-26T19:00:02.819Z,73.5
2022-08-26T19:03:03.229Z,73.5
2022-08-26T19:06:02.920Z,77.4
2022-08-26T19:09:02.952Z,77.4
2022-08-26T19:12:03.726Z,78.2
2022-08-26T19:15:02.849Z,78.2
2022-08-26T19:18:02.844Z,78.2
2022-08-26T19:21:02.827Z,78.2
2022-08-26T19:24:02.781Z,79.4
2022-08-26T19:27:02.802Z,79.4
2022-08-26T19:30:02.793Z,79.4
2022-08-26T19:33:06.895Z,79.4
2022-08-26T19:36:12.709Z,79.1
2022-08-26T19:39:02.726Z,79.1
2022-08-26T19:42:02.786Z,79.1
2022-08-26T19:45:02.733Z,79.1
2022-08-26T19:48:02.814Z,79.1
2022-08-26T19:51:02.778Z,79.1
2022-08-26T19:54:02.754Z,79.1
2022-08-26T19:57:02.743Z,79.1
2022-08-26T20:00:02.852Z,79.1
2022-08-26T20:03:03.097Z,79.1
2022-08-26T20:06:02.761Z,79.1
2022-08-26T20:09:02.987Z,79.1
2022-08-26T20:12:02.771Z,79.1
2022-08-26T20:15:02.852Z,79.1
2022-08-26T20:18:02.850Z,79.1
2022-08-26T20:21:02.847Z,79.1
2022-08-26T20:24:02.826Z,80.8
2022-08-26T20:27:10.297Z,80.8
2022-08-26T20:30:02.796Z,80.8
2022-08-26T20:33:03.136Z,80.8
2022-08-26T20:36:02.753Z,80.8
2022-08-26T20:39:02.925Z,80.8
2022-08-26T20:42:02.958Z,80.8
2022-08-26T20:45:03.002Z,80.8
2022-08-26T20:48:02.758Z,80.8
2022-08-26T20:51:03.705Z,80.8
2022-08-26T20:54:02.763Z,80.2
2022-08-26T20:57:02.768Z,80.2
2022-08-26T21:00:02.937Z,80.2
2022-08-26T21:03:02.831Z,80.2
2022-08-26T21:06:02.823Z,80.2
2022-08-26T21:09:02.820Z,80.2
2022-08-26T21:12:03.556Z,80.2
2022-08-26T21:15:02.860Z,80.2
2022-08-26T21:18:02.798Z,80.2
2022-08-26T21:21:02.814Z,80.9
2022-08-26T21:24:02.743Z,80.9
2022-08-26T21:27:02.779Z,80.9
2022-08-26T21:30:02.755Z,80.9
2022-08-26T21:33:02.836Z,82
2022-08-26T21:36:02.775Z,82
2022-08-26T21:39:02.853Z,82
2022-08-26T21:42:02.813Z,82
2022-08-26T21:45:02.863Z,82
2022-08-26T21:48:02.926Z,82
2022-08-26T21:51:02.742Z,82
2022-08-26T21:54:02.820Z,82
2022-08-26T21:57:02.795Z,82
2022-08-26T22:00:06.786Z,82
2022-08-26T22:03:02.755Z,82
2022-08-26T22:06:02.803Z,83.3
2022-08-26T22:09:02.784Z,83.3
2022-08-26T22:12:02.785Z,83.2
2022-08-26T22:15:02.774Z,83.2
2022-08-26T22:18:02.862Z,83.8
2022-08-26T22:21:02.802Z,83.8
2022-08-26T22:24:02.790Z,83.8
2022-08-26T22:27:02.762Z,83.8
2022-08-26T22:30:02.828Z,83.8
2022-08-26T22:33:02.772Z,83.8
2022-08-26T22:36:02.798Z,83.8
2022-08-26T22:39:02.728Z,83.8
2022-08-26T22:42:02.780Z,83.8
2022-08-26T22:45:02.771Z,83.8
2022-08-26T22:48:02.774Z,83.8
2022-08-26T22:51:02.798Z,83.8
2022-08-26T22:54:02.926Z,83.8
2022-08-26T22:57:02.789Z,85.1
2022-08-26T23:00:02.831Z,85.1
2022-08-26T23:03:02.938Z,85.1
2022-08-26T23:06:02.828Z,85.1
2022-08-26T23:09:02.804Z,85.1
2022-08-26T23:12:02.772Z,85.7
2022-08-26T23:15:03.421Z,85.7
2022-08-26T23:18:02.787Z,85.7
2022-08-26T23:21:02.734Z,85.7
2022-08-26T23:24:02.834Z,85.7
2022-08-26T23:27:02.791Z,85.7
2022-08-26T23:30:02.788Z,85.7
2022-08-26T23:33:02.751Z,85.7
2022-08-26T23:36:02.781Z,85.7
2022-08-26T23:39:02.820Z,85.7
2022-08-26T23:42:02.789Z,85.7
2022-08-26T23:45:02.811Z,88.1
2022-08-26T23:48:02.785Z,88.1
2022-08-26T23:51:02.837Z,88.1
2022-08-26T23:54:02.796Z,88.1
2022-08-26T23:57:02.792Z,88.1
